Time;durP1;ratioP1;P1;durP2;ratioP2;P2;SDS_P1;SDS_P2;PMS_P1;PMS_P2;Temp;Humidity;BMP_temperature;BMP_pressure;BME280_temperature;BME280_humidity;BME280_pressure;Samples;Min_cycle;Max_cycle;Signal;HPM_P1;HPM_P2
2022/05/06 00:00:14;;;;;;;27.17;15.87;;;;;;;;;;5054101;28;20464;-61
2022/05/06 00:02:41;;;;;;;26.50;16.03;;;;;;;;;;5053969;28;20516;-63
2022/05/06 00:05:07;;;;;;;27.23;15.47;;;;;;;;;;5054254;28;20827;-61
2022/05/06 00:07:34;;;;;;;23.00;14.40;;;;;;;;;;5053978;28;20461;-62
2022/05/06 00:10:03;;;;;;;23.10;15.97;;;;;;;;;;5054065;28;20418;-61
2022/05/06 00:12:29;;;;;;;22.93;15.13;;;;;;;;;;5053910;28;20481;-61
2022/05/06 00:14:55;;;;;;;26.40;15.93;;;;;;;;;;5035963;28;20463;-61
2022/05/06 00:17:21;;;;;;;26.60;17.53;;;;;;;;;;5053964;28;20512;-61
2022/05/06 00:19:47;;;;;;;22.90;15.90;;;;;;;;;;5053829;28;20504;-61
2022/05/06 00:22:13;;;;;;;23.67;15.43;;;;;;;;;;5053791;28;20438;-63
2022/05/06 00:24:39;;;;;;;23.13;15.07;;;;;;;;;;5053675;28;20402;-61
2022/05/06 00:27:05;;;;;;;24.37;14.90;;;;;;;;;;5053677;28;20413;-62
2022/05/06 00:29:31;;;;;;;28.63;16.90;;;;;;;;;;5053749;28;20398;-64
2022/05/06 00:31:57;;;;;;;23.50;15.43;;;;;;;;;;5053578;28;20460;-60
2022/05/06 00:34:24;;;;;;;25.90;16.60;;;;;;;;;;5035652;28;20421;-61
2022/05/06 00:36:50;;;;;;;27.83;15.97;;;;;;;;;;5053549;28;20414;-62
2022/05/06 00:39:16;;;;;;;21.50;14.90;;;;;;;;;;5053592;28;20416;-62
2022/05/06 00:41:42;;;;;;;28.83;15.77;;;;;;;;;;5053555;28;20440;-63
2022/05/06 00:44:08;;;;;;;26.00;16.97;;;;;;;;;;5053370;28;20410;-61
2022/05/06 00:46:36;;;;;;;22.70;15.80;;;;;;;;;;5053336;28;20413;-62
2022/05/06 00:49:02;;;;;;;24.83;16.30;;;;;;;;;;5053329;28;20406;-63
2022/05/06 00:51:28;;;;;;;25.07;16.90;;;;;;;;;;5053315;28;20404;-62
2022/05/06 00:53:56;;;;;;;24.60;15.87;;;;;;;;;;5035529;28;20504;-63
2022/05/06 00:56:25;;;;;;;23.90;16.20;;;;;;;;;;5053332;28;20401;-61
2022/05/06 00:58:52;;;;;;;24.17;16.70;;;;;;;;;;5053211;28;20409;-61
2022/05/06 01:01:18;;;;;;;29.40;17.30;;;;;;;;;;5053134;28;20492;-61
2022/05/06 01:03:44;;;;;;;27.77;17.00;;;;;;;;;;5053109;28;20409;-62
2022/05/06 01:06:13;;;;;;;23.00;16.53;;;;;;;;;;5052940;28;20457;-62
2022/05/06 01:08:39;;;;;;;25.50;16.47;;;;;;;;;;5053215;28;20744;-62
2022/05/06 01:11:06;;;;;;;30.13;18.17;;;;;;;;;;5052831;28;20486;-62
2022/05/06 01:13:32;;;;;;;24.03;16.60;;;;;;;;;;5052914;28;20531;-61
2022/05/06 01:15:58;;;;;;;25.37;15.67;;;;;;;;;;5053054;28;20409;-62
2022/05/06 01:18:24;;;;;;;29.77;17.60;;;;;;;;;;5053065;28;20433;-61
2022/05/06 01:20:51;;;;;;;27.03;16.70;;;;;;;;;;5052869;28;20908;-61
2022/05/06 01:23:17;;;;;;;26.40;16.17;;;;;;;;;;5052966;28;20413;-61
2022/05/06 01:25:45;;;;;;;25.07;16.33;;;;;;;;;;5053061;28;20896;-61
2022/05/06 01:28:13;;;;;;;27.73;15.90;;;;;;;;;;5052952;28;20422;-62
2022/05/06 01:30:41;;;;;;;22.20;15.17;;;;;;;;;;5052856;28;20416;-62
2022/05/06 01:33:08;;;;;;;27.07;15.83;;;;;;;;;;5052793;28;20461;-62
2022/05/06 01:35:43;;;;;;;26.50;16.80;;;;;;;;;;5052859;28;20406;-62
2022/05/06 01:38:09;;;;;;;22.37;15.70;;;;;;;;;;5052809;28;20783;-64
2022/05/06 01:40:58;;;;;;;25.97;18.00;;;;;;;;;;5052745;28;20418;-62
2022/05/06 01:43:26;;;;;;;26.23;17.43;;;;;;;;;;5052684;28;20414;-62
2022/05/06 01:45:55;;;;;;;23.97;16.80;;;;;;;;;;5052815;28;20405;-61
2022/05/06 01:48:21;;;;;;;25.20;17.20;;;;;;;;;;5052803;28;20460;-62
2022/05/06 01:50:48;;;;;;;26.50;16.37;;;;;;;;;;5052806;28;20416;-62
2022/05/06 01:53:16;;;;;;;27.67;17.80;;;;;;;;;;5052564;28;20516;-68
2022/05/06 01:55:42;;;;;;;26.70;16.20;;;;;;;;;;5052636;28;20884;-67
2022/05/06 01:58:08;;;;;;;27.57;16.83;;;;;;;;;;5052755;28;20456;-63
2022/05/06 02:00:37;;;;;;;24.10;15.73;;;;;;;;;;5052736;28;20393;-70
2022/05/06 02:03:04;;;;;;;26.90;16.37;;;;;;;;;;5052406;28;20487;-66
2022/05/06 02:05:30;;;;;;;27.43;17.10;;;;;;;;;;5052670;28;20428;-62
2022/05/06 02:07:56;;;;;;;25.10;16.53;;;;;;;;;;5052376;28;20460;-66
2022/05/06 02:10:24;;;;;;;25.70;16.77;;;;;;;;;;5052560;28;20463;-68
2022/05/06 02:12:50;;;;;;;38.33;18.53;;;;;;;;;;5052386;28;20827;-68
2022/05/06 02:15:16;;;;;;;26.37;16.50;;;;;;;;;;5052534;28;20405;-63
2022/05/06 02:17:42;;;;;;;22.67;15.33;;;;;;;;;;5052434;28;20437;-66
2022/05/06 02:20:09;;;;;;;23.23;16.47;;;;;;;;;;5052227;28;20421;-64
2022/05/06 02:22:36;;;;;;;23.90;16.20;;;;;;;;;;5054511;28;20424;-64
2022/05/06 02:25:04;;;;;;;21.47;15.30;;;;;;;;;;5056080;28;20402;-67
2022/05/06 02:27:30;;;;;;;25.80;16.70;;;;;;;;;;5056024;28;20420;-64
2022/05/06 02:35:28;;;;;;;21.47;14.97;;;;;;;;;;5055909;28;20810;-63
2022/05/06 02:37:54;;;;;;;25.07;17.30;;;;;;;;;;5055808;28;20401;-63
2022/05/06 02:40:20;;;;;;;20.70;14.87;;;;;;;;;;5055750;28;20421;-66
2022/05/06 02:42:46;;;;;;;20.80;14.53;;;;;;;;;;5055540;28;20554;-65
2022/05/06 02:45:12;;;;;;;25.93;15.70;;;;;;;;;;5055707;28;20441;-69
2022/05/06 02:47:38;;;;;;;23.60;15.47;;;;;;;;;;5055671;28;20493;-67
2022/05/06 02:50:05;;;;;;;23.63;15.93;;;;;;;;;;5055629;28;20425;-63
2022/05/06 02:52:31;;;;;;;19.87;14.80;;;;;;;;;;5055370;28;20809;-66
2022/05/06 02:54:57;;;;;;;25.47;15.33;;;;;;;;;;5055420;28;20410;-67
2022/05/06 02:57:23;;;;;;;18.70;15.00;;;;;;;;;;5055493;28;20512;-63
2022/05/06 02:59:49;;;;;;;24.67;16.70;;;;;;;;;;5055435;28;20401;-69
2022/05/06 03:02:15;;;;;;;21.37;15.67;;;;;;;;;;5055190;28;20425;-63
2022/05/06 03:04:41;;;;;;;25.73;16.17;;;;;;;;;;5055206;28;20888;-67
2022/05/06 03:07:08;;;;;;;24.70;16.03;;;;;;;;;;5055232;28;20540;-67
2022/05/06 03:09:34;;;;;;;25.80;15.90;;;;;;;;;;5055255;28;20500;-66
2022/05/06 03:12:00;;;;;;;25.23;16.20;;;;;;;;;;5055042;28;20461;-70
2022/05/06 03:14:27;;;;;;;25.10;15.70;;;;;;;;;;5055032;28;20421;-62
2022/05/06 03:16:53;;;;;;;25.70;15.77;;;;;;;;;;5055165;28;20502;-69
2022/05/06 03:19:19;;;;;;;24.37;16.70;;;;;;;;;;5055109;28;20445;-66
2022/05/06 03:21:50;;;;;;;24.97;15.73;;;;;;;;;;5054939;28;20436;-69
2022/05/06 03:24:17;;;;;;;22.53;15.90;;;;;;;;;;5054955;28;20389;-68
2022/05/06 03:26:43;;;;;;;22.60;15.90;;;;;;;;;;5054961;28;20444;-62
2022/05/06 03:29:09;;;;;;;20.33;15.33;;;;;;;;;;5036980;28;20492;-64
2022/05/06 03:31:36;;;;;;;19.00;14.80;;;;;;;;;;5054676;28;20765;-62
2022/05/06 03:34:03;;;;;;;22.93;15.00;;;;;;;;;;5054368;28;20779;-66
2022/05/06 03:36:29;;;;;;;24.47;14.20;;;;;;;;;;5054733;28;20960;-64
2022/05/06 03:38:55;;;;;;;20.93;14.53;;;;;;;;;;5054693;28;20488;-66
2022/05/06 03:41:21;;;;;;;22.53;14.27;;;;;;;;;;5054461;28;20412;-68
2022/05/06 03:43:47;;;;;;;21.30;14.90;;;;;;;;;;5054478;28;20516;-66
2022/05/06 03:46:14;;;;;;;21.77;15.13;;;;;;;;;;5054542;28;20407;-68
2022/05/06 03:48:40;;;;;;;18.50;13.40;;;;;;;;;;5054402;28;20496;-64
2022/05/06 03:51:22;;;;;;;24.67;14.10;;;;;;;;;;5054417;28;20513;-68
2022/05/06 03:53:49;;;;;;;20.47;14.13;;;;;;;;;;5054269;28;20472;-66
2022/05/06 03:56:15;;;;;;;18.97;13.90;;;;;;;;;;5054262;28;20425;-67
2022/05/06 03:58:41;;;;;;;18.03;12.97;;;;;;;;;;5054275;28;20417;-64
2022/05/06 04:01:07;;;;;;;18.40;13.87;;;;;;;;;;5054007;28;20970;-64
2022/05/06 04:03:34;;;;;;;18.17;13.77;;;;;;;;;;5054042;28;20402;-62
2022/05/06 04:06:00;;;;;;;20.00;13.73;;;;;;;;;;5054120;28;20449;-67
2022/05/06 04:08:26;;;;;;;20.77;13.90;;;;;;;;;;5054058;28;20774;-65
2022/05/06 04:10:52;;;;;;;23.23;15.30;;;;;;;;;;5053951;28;20398;-66
2022/05/06 04:13:19;;;;;;;20.87;14.10;;;;;;;;;;5053693;28;20480;-69
2022/05/06 04:15:48;;;;;;;26.23;14.77;;;;;;;;;;5053882;28;20397;-64
2022/05/06 04:18:14;;;;;;;22.50;15.43;;;;;;;;;;5053760;28;20448;-64
2022/05/06 04:23:32;;;;;;;29.80;14.50;;;;;;;;;;5054091;28;20405;-67
2022/05/06 04:26:01;;;;;;;28.27;15.27;;;;;;;;;;5053732;28;20470;-69
2022/05/06 04:28:27;;;;;;;25.00;15.00;;;;;;;;;;5053730;28;20458;-68
2022/05/06 04:30:54;;;;;;;19.07;14.93;;;;;;;;;;5035895;28;20544;-67
2022/05/06 04:33:20;;;;;;;24.10;15.30;;;;;;;;;;5053430;28;20563;-71
2022/05/06 04:35:47;;;;;;;19.27;14.37;;;;;;;;;;5053532;28;20417;-67
2022/05/06 04:38:13;;;;;;;24.13;15.40;;;;;;;;;;5053532;28;20884;-72
2022/05/06 04:40:40;;;;;;;20.93;15.63;;;;;;;;;;5053469;28;20417;-68
2022/05/06 04:43:07;;;;;;;20.67;13.83;;;;;;;;;;5053386;28;20414;-71
2022/05/06 04:45:43;;;;;;;20.63;14.33;;;;;;;;;;5052844;28;20405;-73
2022/05/06 04:48:11;;;;;;;20.30;12.97;;;;;;;;;;5053457;28;20836;-71
2022/05/06 04:50:37;;;;;;;21.00;14.60;;;;;;;;;;5035571;28;20410;-72
2022/05/06 04:53:05;;;;;;;21.90;13.77;;;;;;;;;;5053278;28;20586;-73
2022/05/06 04:55:31;;;;;;;23.80;15.33;;;;;;;;;;5053164;28;20479;-70
2022/05/06 04:57:57;;;;;;;20.10;13.13;;;;;;;;;;5053334;28;20417;-78
2022/05/06 05:00:23;;;;;;;18.67;13.07;;;;;;;;;;5053303;28;20409;-70
2022/05/06 05:02:49;;;;;;;20.73;14.50;;;;;;;;;;5035006;28;20448;-79
2022/05/06 05:05:15;;;;;;;18.80;13.60;;;;;;;;;;5053029;28;20892;-83
2022/05/06 05:07:41;;;;;;;17.50;13.23;;;;;;;;;;5067182;28;20529;-74
2022/05/06 05:10:11;;;;;;;21.47;15.13;;;;;;;;;;5073148;28;20396;-74
2022/05/06 05:12:37;;;;;;;19.13;12.77;;;;;;;;;;5072879;28;20479;-70
2022/05/06 05:15:03;;;;;;;16.90;12.87;;;;;;;;;;5073024;28;20491;-70
2022/05/06 05:17:30;;;;;;;17.33;12.53;;;;;;;;;;5073033;28;20435;-68
2022/05/06 05:19:56;;;;;;;16.83;12.63;;;;;;;;;;5073062;28;20511;-69
2022/05/06 05:22:22;;;;;;;17.90;13.07;;;;;;;;;;5072882;28;20415;-71
2022/05/06 05:24:48;;;;;;;18.03;12.67;;;;;;;;;;5072916;28;20397;-67
2022/05/06 05:27:14;;;;;;;18.33;12.90;;;;;;;;;;5072894;28;20506;-67
2022/05/06 05:29:41;;;;;;;17.47;13.43;;;;;;;;;;5073000;28;20448;-72
2022/05/06 05:32:08;;;;;;;17.77;13.10;;;;;;;;;;5072553;28;20463;-69
2022/05/06 05:34:34;;;;;;;18.10;12.90;;;;;;;;;;5072858;28;20412;-70
2022/05/06 05:37:00;;;;;;;20.70;12.70;;;;;;;;;;5072689;28;20918;-68
2022/05/06 05:39:26;;;;;;;16.60;11.60;;;;;;;;;;5072795;28;20412;-72
2022/05/06 05:41:52;;;;;;;22.17;14.30;;;;;;;;;;5072670;28;20409;-74
2022/05/06 05:49:48;;;;;;;17.60;12.90;;;;;;;;;;5072826;28;20492;-63
2022/05/06 05:52:14;;;;;;;16.50;12.13;;;;;;;;;;5072467;28;20970;-63
2022/05/06 05:54:40;;;;;;;18.50;12.37;;;;;;;;;;5072603;28;20440;-63
2022/05/06 05:57:07;;;;;;;16.23;13.00;;;;;;;;;;5074275;28;20412;-64
2022/05/06 05:59:36;;;;;;;14.80;11.73;;;;;;;;;;5076284;28;20404;-62
2022/05/06 06:02:02;;;;;;;19.83;13.87;;;;;;;;;;5076113;28;20433;-70
2022/05/06 06:04:28;;;;;;;21.10;13.40;;;;;;;;;;5076412;28;20408;-63
2022/05/06 06:06:54;;;;;;;24.13;14.33;;;;;;;;;;5064845;28;20457;-63
2022/05/06 06:09:23;;;;;;;21.60;14.30;;;;;;;;;;5056195;28;20414;-66
2022/05/06 06:11:50;;;;;;;17.00;13.07;;;;;;;;;;5055980;28;20432;-70
2022/05/06 06:14:16;;;;;;;19.80;12.90;;;;;;;;;;5056118;28;20908;-66
2022/05/06 06:16:43;;;;;;;19.60;14.00;;;;;;;;;;5056024;28;20405;-65
2022/05/06 06:19:09;;;;;;;20.57;13.47;;;;;;;;;;5038127;28;20500;-66
2022/05/06 06:21:35;;;;;;;16.63;12.77;;;;;;;;;;5055944;28;20405;-70
2022/05/06 06:24:01;;;;;;;19.50;12.17;;;;;;;;;;5055937;28;20944;-69
2022/05/06 06:26:27;;;;;;;17.27;13.27;;;;;;;;;;5055905;28;20410;-65
2022/05/06 06:28:53;;;;;;;18.73;13.43;;;;;;;;;;5055836;28;20398;-66
2022/05/06 06:31:19;;;;;;;23.57;14.73;;;;;;;;;;5055644;28;20437;-63
2022/05/06 06:33:45;;;;;;;21.23;14.80;;;;;;;;;;5037761;28;20575;-66
2022/05/06 06:36:11;;;;;;;19.27;13.60;;;;;;;;;;5055750;28;20964;-70
2022/05/06 06:38:37;;;;;;;17.03;13.00;;;;;;;;;;5055828;28;20512;-73
2022/05/06 06:41:04;;;;;;;16.37;12.30;;;;;;;;;;5055483;28;20449;-72
2022/05/06 06:43:30;;;;;;;21.63;13.20;;;;;;;;;;5037620;28;20406;-70
2022/05/06 06:45:59;;;;;;;19.67;13.57;;;;;;;;;;5037682;28;20946;-71
2022/05/06 06:48:25;;;;;;;17.87;13.17;;;;;;;;;;5055537;28;20405;-71
2022/05/06 06:50:52;;;;;;;16.73;13.10;;;;;;;;;;5055489;28;20410;-67
2022/05/06 06:53:19;;;;;;;18.97;13.60;;;;;;;;;;5055292;28;20476;-70
2022/05/06 06:55:45;;;;;;;17.90;12.40;;;;;;;;;;5055523;28;20429;-71
2022/05/06 06:58:11;;;;;;;20.30;13.80;;;;;;;;;;5055377;28;20524;-74
2022/05/06 07:00:37;;;;;;;22.07;12.77;;;;;;;;;;5055264;28;20410;-69
2022/05/06 07:03:04;;;;;;;16.20;12.40;;;;;;;;;;5055156;28;20440;-67
2022/05/06 07:05:30;;;;;;;18.40;12.70;;;;;;;;;;5055218;28;20416;-68
2022/05/06 07:13:36;;;;;;;17.07;10.97;;;;;;;;;;5000677;28;20475;-70
2022/05/06 07:16:03;;;;;;;16.07;11.73;;;;;;;;;;5055069;28;20472;-64
2022/05/06 07:18:29;;;;;;;15.83;11.23;;;;;;;;;;5054996;28;20492;-65
2022/05/06 07:20:55;;;;;;;16.47;12.00;;;;;;;;;;5054775;28;20552;-66
2022/05/06 07:23:21;;;;;;;16.50;12.53;;;;;;;;;;5054781;28;20436;-73
2022/05/06 07:25:47;;;;;;;13.90;10.77;;;;;;;;;;5054930;28;20421;-67
2022/05/06 07:28:13;;;;;;;16.30;12.13;;;;;;;;;;5054912;28;20406;-72
2022/05/06 07:30:39;;;;;;;18.90;12.40;;;;;;;;;;5054783;28;20904;-66
2022/05/06 07:33:05;;;;;;;14.07;10.87;;;;;;;;;;5036564;28;20568;-63
2022/05/06 07:35:31;;;;;;;20.13;12.00;;;;;;;;;;5036934;28;20758;-71
2022/05/06 07:37:57;;;;;;;15.63;11.70;;;;;;;;;;5054591;28;20406;-70
2022/05/06 07:40:23;;;;;;;15.60;10.57;;;;;;;;;;5054483;28;20406;-72
2022/05/06 07:42:51;;;;;;;13.57;9.77;;;;;;;;;;5036458;28;20449;-67
2022/05/06 07:45:17;;;;;;;15.77;11.13;;;;;;;;;;5054344;28;20919;-64
2022/05/06 07:47:43;;;;;;;16.13;10.50;;;;;;;;;;5054456;28;20405;-68
2022/05/06 07:50:10;;;;;;;14.70;10.20;;;;;;;;;;5054412;28;20398;-71
2022/05/06 07:52:37;;;;;;;14.93;9.97;;;;;;;;;;5054186;28;20556;-67
2022/05/06 07:55:03;;;;;;;16.10;10.13;;;;;;;;;;5054374;28;20475;-71
2022/05/06 07:57:29;;;;;;;14.10;9.63;;;;;;;;;;5054075;28;20457;-66
2022/05/06 07:59:55;;;;;;;10.10;9.00;;;;;;;;;;5054220;28;20412;-63
2022/05/06 08:05:06;;;;;;;20.93;10.20;;;;;;;;;;5054417;28;20789;-63
2022/05/06 08:07:32;;;;;;;16.00;9.90;;;;;;;;;;5053926;28;20465;-67
2022/05/06 08:09:58;;;;;;;14.53;9.77;;;;;;;;;;5053969;28;20523;-67
2022/05/06 08:12:25;;;;;;;10.77;8.57;;;;;;;;;;5053910;28;20537;-67
2022/05/06 08:14:52;;;;;;;12.17;8.73;;;;;;;;;;5053817;28;20998;-68
2022/05/06 08:17:18;;;;;;;14.00;10.03;;;;;;;;;;5053965;28;20405;-67
2022/05/06 08:19:44;;;;;;;14.20;10.30;;;;;;;;;;5035067;28;20448;-69
2022/05/06 08:22:11;;;;;;;11.80;9.63;;;;;;;;;;5053692;28;20412;-66
2022/05/06 08:24:37;;;;;;;10.77;9.20;;;;;;;;;;5053918;28;20807;-63
2022/05/06 08:27:03;;;;;;;11.90;8.40;;;;;;;;;;5053702;28;20497;-63
2022/05/06 08:29:29;;;;;;;13.60;9.60;;;;;;;;;;5053572;28;20422;-67
2022/05/06 08:31:55;;;;;;;11.70;9.10;;;;;;;;;;5053285;28;20456;-63
2022/05/06 08:34:22;;;;;;;12.30;10.00;;;;;;;;;;5053567;28;20418;-65
2022/05/06 08:36:48;;;;;;;12.80;8.83;;;;;;;;;;5053590;28;20873;-66
2022/05/06 08:39:14;;;;;;;13.53;9.10;;;;;;;;;;5053442;28;20440;-65
2022/05/06 08:41:41;;;;;;;9.97;8.47;;;;;;;;;;5053306;28;20451;-69
2022/05/06 08:52:25;;;;;;;11.07;8.40;;;;;;;;;;5053405;28;20527;-63
2022/05/06 08:54:51;;;;;;;15.27;9.40;;;;;;;;;;5035453;28;20432;-65
2022/05/06 08:57:18;;;;;;;12.10;8.87;;;;;;;;;;5053239;28;20406;-64
2022/05/06 08:59:50;;;;;;;11.23;9.10;;;;;;;;;;5053154;28;20397;-64
2022/05/06 09:02:16;;;;;;;9.67;8.10;;;;;;;;;;5052969;28;20588;-64
2022/05/06 09:04:42;;;;;;;10.13;8.20;;;;;;;;;;5052883;28;20496;-65
2022/05/06 09:07:19;;;;;;;11.27;9.00;;;;;;;;;;5052894;28;20514;-72
2022/05/06 09:10:05;;;;;;;12.43;9.10;;;;;;;;;;5053053;28;20417;-64
2022/05/06 09:12:40;;;;;;;11.47;8.63;;;;;;;;;;5052863;28;20935;-66
2022/05/06 09:17:51;;;;;;;11.57;8.80;;;;;;;;;;5053239;28;20810;-64
2022/05/06 09:20:18;;;;;;;9.90;8.50;;;;;;;;;;5053004;28;20881;-68
2022/05/06 09:22:45;;;;;;;11.67;8.63;;;;;;;;;;5035139;28;20767;-63
2022/05/06 09:25:11;;;;;;;11.17;9.23;;;;;;;;;;5034953;28;20429;-68
2022/05/06 09:27:37;;;;;;;10.50;7.53;;;;;;;;;;5034989;28;20413;-63
2022/05/06 09:30:12;;;;;;;10.57;8.40;;;;;;;;;;5053063;28;20405;-64
2022/05/06 09:32:38;;;;;;;12.37;8.40;;;;;;;;;;5056872;28;20468;-64
2022/05/06 09:35:10;;;;;;;18.33;8.43;;;;;;;;;;5039069;28;20581;-63
2022/05/06 09:37:37;;;;;;;11.27;8.30;;;;;;;;;;5039172;28;20433;-65
2022/05/06 09:40:03;;;;;;;11.20;8.83;;;;;;;;;;5056760;28;20420;-64
2022/05/06 09:42:29;;;;;;;11.80;7.87;;;;;;;;;;5056575;28;20430;-63
2022/05/06 09:44:55;;;;;;;9.83;7.80;;;;;;;;;;5056580;28;20880;-65
2022/05/06 09:47:24;;;;;;;11.40;8.00;;;;;;;;;;5056539;28;20417;-62
2022/05/06 09:49:51;;;;;;;11.20;8.20;;;;;;;;;;5056579;28;20512;-63
2022/05/06 09:52:18;;;;;;;12.00;7.97;;;;;;;;;;5056482;28;20951;-63
2022/05/06 09:54:44;;;;;;;10.87;8.47;;;;;;;;;;5056542;28;20397;-65
2022/05/06 09:57:11;;;;;;;9.67;8.40;;;;;;;;;;5056433;28;20428;-66
2022/05/06 09:59:37;;;;;;;15.83;8.23;;;;;;;;;;5056523;28;20418;-64
2022/05/06 10:02:06;;;;;;;10.07;8.30;;;;;;;;;;5056213;28;20448;-63
2022/05/06 10:04:34;;;;;;;11.37;8.53;;;;;;;;;;5056401;28;20416;-74
2022/05/06 10:07:00;;;;;;;9.00;7.77;;;;;;;;;;5056151;28;20492;-72
2022/05/06 10:09:27;;;;;;;7.93;6.80;;;;;;;;;;5056352;28;20408;-64
2022/05/06 10:11:55;;;;;;;11.23;7.93;;;;;;;;;;5056167;28;20508;-65
2022/05/06 10:14:21;;;;;;;9.77;7.50;;;;;;;;;;5056474;28;20927;-63
2022/05/06 10:16:48;;;;;;;9.40;7.70;;;;;;;;;;5056029;28;20508;-66
2022/05/06 10:19:27;;;;;;;9.00;7.20;;;;;;;;;;5038433;28;20750;-64
2022/05/06 10:21:55;;;;;;;12.50;8.00;;;;;;;;;;5055983;28;20417;-65
2022/05/06 10:24:21;;;;;;;10.40;7.80;;;;;;;;;;5056173;28;20402;-64
2022/05/06 10:26:48;;;;;;;12.33;9.10;;;;;;;;;;5055956;28;20901;-65
2022/05/06 10:35:05;;;;;;;12.83;7.70;;;;;;;;;;5056031;28;20412;-65
2022/05/06 10:37:44;;;;;;;17.23;8.50;;;;;;;;;;5055980;28;20408;-65
2022/05/06 10:40:25;;;;;;;9.27;7.63;;;;;;;;;;5055746;28;20528;-66
2022/05/06 10:42:52;;;;;;;12.00;7.83;;;;;;;;;;5036792;28;20417;-65
2022/05/06 10:45:32;;;;;;;9.10;7.50;;;;;;;;;;5055537;28;20455;-64
2022/05/06 10:47:58;;;;;;;12.00;7.90;;;;;;;;;;5055660;28;20409;-64
2022/05/06 10:50:25;;;;;;;10.57;7.50;;;;;;;;;;5055570;28;20908;-62
2022/05/06 10:52:51;;;;;;;10.83;7.47;;;;;;;;;;5055376;28;20518;-65
2022/05/06 10:55:19;;;;;;;13.37;8.43;;;;;;;;;;5037675;28;20412;-64
2022/05/06 10:57:49;;;;;;;16.30;9.93;;;;;;;;;;5055390;28;20500;-68
2022/05/06 11:00:15;;;;;;;11.50;7.87;;;;;;;;;;5055395;28;20409;-67
2022/05/06 11:02:41;;;;;;;7.80;6.53;;;;;;;;;;5055106;28;21002;-65
2022/05/06 11:05:15;;;;;;;11.47;6.60;;;;;;;;;;5055302;28;20429;-65
2022/05/06 11:07:41;;;;;;;11.63;8.17;;;;;;;;;;5055200;28;20457;-63
2022/05/06 11:10:12;;;;;;;12.33;7.20;;;;;;;;;;5055208;28;20416;-69
2022/05/06 11:12:38;;;;;;;8.40;6.50;;;;;;;;;;5037041;28;20515;-68
2022/05/06 11:15:08;;;;;;;8.50;7.20;;;;;;;;;;5055002;28;20422;-64
2022/05/06 11:17:34;;;;;;;7.87;6.20;;;;;;;;;;5055031;28;20394;-63
2022/05/06 11:20:01;;;;;;;7.30;5.97;;;;;;;;;;5054983;28;20393;-65
2022/05/06 11:22:28;;;;;;;11.60;7.63;;;;;;;;;;5054923;28;20416;-64
2022/05/06 11:24:57;;;;;;;7.93;6.43;;;;;;;;;;5054836;28;20460;-64
2022/05/06 11:27:23;;;;;;;9.37;6.53;;;;;;;;;;5054779;28;20437;-64
2022/05/06 11:29:55;;;;;;;8.07;6.80;;;;;;;;;;5054860;28;20472;-70
2022/05/06 11:32:22;;;;;;;8.77;6.17;;;;;;;;;;5036614;28;20488;-63
2022/05/06 11:35:08;;;;;;;8.13;7.03;;;;;;;;;;5054690;28;20482;-64
2022/05/06 11:37:35;;;;;;;10.17;6.37;;;;;;;;;;5040905;28;20425;-67
2022/05/06 11:40:32;;;;;;;7.43;6.73;;;;;;;;;;5054698;28;20413;-64
2022/05/06 11:42:58;;;;;;;7.30;6.17;;;;;;;;;;5054611;28;20466;-64
2022/05/06 11:48:13;;;;;;;8.70;7.00;;;;;;;;;;5054711;28;20451;-73
2022/05/06 11:50:41;;;;;;;9.67;6.47;;;;;;;;;;5054354;28;20742;-72
2022/05/06 11:53:08;;;;;;;7.77;6.70;;;;;;;;;;5054124;28;20871;-72
2022/05/06 11:55:44;;;;;;;8.57;5.90;;;;;;;;;;5054306;28;20402;-65
2022/05/06 11:58:12;;;;;;;7.80;6.30;;;;;;;;;;5054375;28;20417;-68
2022/05/06 12:00:38;;;;;;;10.27;6.30;;;;;;;;;;5054129;28;20397;-65
2022/05/06 12:03:04;;;;;;;7.90;6.50;;;;;;;;;;5054028;28;20547;-73
2022/05/06 12:05:31;;;;;;;8.43;6.47;;;;;;;;;;5054093;28;20409;-73
2022/05/06 12:07:57;;;;;;;8.47;6.20;;;;;;;;;;5053925;28;20485;-73
2022/05/06 12:10:24;;;;;;;9.93;6.40;;;;;;;;;;5054117;28;20405;-68
2022/05/06 12:12:54;;;;;;;10.13;7.00;;;;;;;;;;5053901;28;20970;-74
2022/05/06 12:15:20;;;;;;;11.77;6.67;;;;;;;;;;5053878;28;20445;-74
2022/05/06 12:17:46;;;;;;;10.90;6.33;;;;;;;;;;5054000;28;20900;-70
2022/05/06 12:20:31;;;;;;;15.30;6.50;;;;;;;;;;5054092;28;20808;-73
2022/05/06 12:23:00;;;;;;;11.63;6.80;;;;;;;;;;5053740;28;20459;-72
2022/05/06 12:25:27;;;;;;;9.77;6.40;;;;;;;;;;5053850;28;20504;-72
2022/05/06 12:28:09;;;;;;;10.50;6.97;;;;;;;;;;5053757;28;20476;-73
2022/05/06 12:30:36;;;;;;;10.23;6.90;;;;;;;;;;5053774;28;20834;-73
2022/05/06 12:33:11;;;;;;;8.60;7.00;;;;;;;;;;5053399;28;20572;-72
2022/05/06 12:35:56;;;;;;;9.37;6.53;;;;;;;;;;5053622;28;20423;-74
2022/05/06 12:38:23;;;;;;;9.17;7.10;;;;;;;;;;5053494;28;20424;-70
2022/05/06 12:40:50;;;;;;;8.30;5.93;;;;;;;;;;5053410;28;20921;-64
2022/05/06 12:43:16;;;;;;;13.90;6.03;;;;;;;;;;5053446;28;20522;-74
2022/05/06 12:45:52;;;;;;;7.53;6.60;;;;;;;;;;5053413;28;20420;-64
2022/05/06 12:51:03;;;;;;;7.80;5.70;;;;;;;;;;5053630;28;20393;-71
2022/05/06 12:53:29;;;;;;;7.43;6.13;;;;;;;;;;5053210;28;20465;-68
2022/05/06 12:55:56;;;;;;;7.70;6.17;;;;;;;;;;5053136;28;20416;-72
2022/05/06 12:58:27;;;;;;;11.37;5.97;;;;;;;;;;5035306;28;20862;-73
2022/05/06 13:00:53;;;;;;;7.00;5.97;;;;;;;;;;5053117;28;20451;-64
2022/05/06 13:03:19;;;;;;;8.57;6.20;;;;;;;;;;5053137;28;20413;-63
2022/05/06 13:05:46;;;;;;;11.83;6.70;;;;;;;;;;5052454;28;20398;-63
2022/05/06 13:08:12;;;;;;;7.30;5.23;;;;;;;;;;5053141;28;20417;-66
2022/05/06 13:10:38;;;;;;;9.80;6.40;;;;;;;;;;5052992;28;20436;-65
2022/05/06 13:13:04;;;;;;;8.43;6.27;;;;;;;;;;5052940;28;20506;-63
2022/05/06 13:15:30;;;;;;;6.03;5.43;;;;;;;;;;5053002;28;20817;-64
2022/05/06 13:17:56;;;;;;;7.93;6.40;;;;;;;;;;5052873;28;20410;-63
2022/05/06 13:20:22;;;;;;;9.20;6.27;;;;;;;;;;5052932;28;20496;-64
2022/05/06 13:22:48;;;;;;;10.53;6.40;;;;;;;;;;5052815;28;20406;-67
2022/05/06 13:25:14;;;;;;;8.70;7.03;;;;;;;;;;5053123;28;20412;-65
2022/05/06 13:27:40;;;;;;;6.77;5.70;;;;;;;;;;5052927;28;20429;-70
2022/05/06 13:30:07;;;;;;;9.63;6.23;;;;;;;;;;5052379;28;20421;-65
2022/05/06 13:32:34;;;;;;;7.17;5.73;;;;;;;;;;5052615;28;20465;-64
2022/05/06 13:35:00;;;;;;;9.87;5.93;;;;;;;;;;5052900;28;20413;-63
2022/05/06 13:37:26;;;;;;;6.30;5.67;;;;;;;;;;5052851;28;20413;-63
2022/05/06 13:39:52;;;;;;;6.97;5.47;;;;;;;;;;5052783;28;20409;-65
2022/05/06 13:42:18;;;;;;;8.53;5.50;;;;;;;;;;5034766;28;20417;-64
2022/05/06 13:44:46;;;;;;;8.23;6.80;;;;;;;;;;5052975;28;20406;-64
2022/05/06 13:47:12;;;;;;;8.40;6.63;;;;;;;;;;5052677;28;20772;-66
2022/05/06 13:49:38;;;;;;;8.37;6.10;;;;;;;;;;5052716;28;20769;-68
2022/05/06 13:52:04;;;;;;;6.90;5.93;;;;;;;;;;5052658;28;20910;-64
2022/05/06 13:54:30;;;;;;;6.13;5.47;;;;;;;;;;5052796;28;20418;-67
2022/05/06 13:59:41;;;;;;;8.33;6.40;;;;;;;;;;5052661;28;20400;-66
2022/05/06 14:02:07;;;;;;;8.60;5.93;;;;;;;;;;5052376;28;20782;-64
2022/05/06 14:04:33;;;;;;;7.60;6.37;;;;;;;;;;5034613;28;20892;-64
2022/05/06 14:06:59;;;;;;;10.23;5.90;;;;;;;;;;5052425;28;20472;-63
2022/05/06 14:09:25;;;;;;;7.73;6.20;;;;;;;;;;5034659;28;20430;-65
2022/05/06 14:11:51;;;;;;;8.30;6.40;;;;;;;;;;5052403;28;20409;-65
2022/05/06 14:14:17;;;;;;;7.60;6.20;;;;;;;;;;5052747;28;20534;-67
2022/05/06 14:16:43;;;;;;;12.80;6.80;;;;;;;;;;5052402;28;20770;-63
2022/05/06 14:19:09;;;;;;;9.00;6.10;;;;;;;;;;5055781;28;20406;-63
2022/05/06 14:21:35;;;;;;;12.03;6.57;;;;;;;;;;5056117;28;20770;-68
2022/05/06 14:24:01;;;;;;;10.53;7.10;;;;;;;;;;5056124;28;20471;-62
2022/05/06 14:26:27;;;;;;;9.00;6.30;;;;;;;;;;5056069;28;20772;-63
2022/05/06 14:28:54;;;;;;;8.93;6.27;;;;;;;;;;5055842;28;20952;-63
2022/05/06 14:31:20;;;;;;;7.73;6.00;;;;;;;;;;5055780;28;20928;-66
2022/05/06 14:33:46;;;;;;;9.53;6.00;;;;;;;;;;5055817;28;20492;-65
2022/05/06 14:36:17;;;;;;;7.83;5.73;;;;;;;;;;5037944;28;20410;-65
2022/05/06 14:38:43;;;;;;;7.37;5.83;;;;;;;;;;5038013;28;20417;-64
2022/05/06 14:41:10;;;;;;;7.37;6.23;;;;;;;;;;5037737;28;20416;-66
2022/05/06 14:43:36;;;;;;;10.67;6.30;;;;;;;;;;5055784;28;20434;-64
2022/05/06 14:46:02;;;;;;;8.70;6.70;;;;;;;;;;5055688;28;20402;-63
2022/05/06 14:48:28;;;;;;;7.80;5.80;;;;;;;;;;5055650;28;20424;-66
2022/05/06 14:50:54;;;;;;;7.70;6.30;;;;;;;;;;5055401;28;20410;-64
2022/05/06 14:53:20;;;;;;;7.93;6.63;;;;;;;;;;5055530;28;20564;-66
2022/05/06 14:55:46;;;;;;;7.20;6.10;;;;;;;;;;5055530;28;20428;-65
2022/05/06 14:58:12;;;;;;;9.13;6.33;;;;;;;;;;5055422;28;20881;-64
2022/05/06 15:00:38;;;;;;;7.33;6.60;;;;;;;;;;5037506;28;20413;-69
2022/05/06 15:03:05;;;;;;;8.00;6.90;;;;;;;;;;5055441;28;20417;-64
2022/05/06 15:05:31;;;;;;;9.03;6.90;;;;;;;;;;5055252;28;20418;-64
2022/05/06 15:07:57;;;;;;;10.67;7.10;;;;;;;;;;5055267;28;20541;-64
2022/05/06 15:10:23;;;;;;;7.10;5.50;;;;;;;;;;5037281;28;20969;-64
2022/05/06 15:12:49;;;;;;;6.40;5.80;;;;;;;;;;5055121;28;20464;-62